Time;durP1;ratioP1;P1;durP2;ratioP2;P2;SDS_P1;SDS_P2;PMS_P1;PMS_P2;Temp;Humidity;BMP_temperature;BMP_pressure;BME280_temperature;BME280_humidity;BME280_pressure;Samples;Min_cycle;Max_cycle;Signal;HPM_P1;HPM_P2
2023/04/01 00:00:24;;;;;;;7.70;1.55;;;;;;;;;;4981019;28;20046;-71
2023/04/01 00:02:49;;;;;;;5.80;2.05;;;;;;;;;;4983485;28;20057;-71
2023/04/01 00:05:16;;;;;;;8.77;1.75;;;;;;;;;;4983679;28;20053;-71
2023/04/01 00:07:41;;;;;;;8.85;1.30;;;;;;;;;;4981283;28;20042;-71
2023/04/01 00:10:09;;;;;;;7.53;1.45;;;;;;;;;;4976803;28;20100;-71
2023/04/01 00:12:35;;;;;;;6.60;1.13;;;;;;;;;;4976514;28;20034;-71
2023/04/01 00:15:01;;;;;;;6.10;1.13;;;;;;;;;;4970931;28;20057;-71
2023/04/01 00:17:26;;;;;;;8.38;1.38;;;;;;;;;;4982745;28;20125;-71
2023/04/01 00:19:54;;;;;;;4.60;1.10;;;;;;;;;;4974901;28;20050;-71
2023/04/01 00:22:20;;;;;;;5.60;1.30;;;;;;;;;;4986494;28;20089;-71
2023/04/01 00:24:45;;;;;;;7.70;1.23;;;;;;;;;;4982383;28;20464;-71
2023/04/01 00:27:10;;;;;;;6.28;1.50;;;;;;;;;;4985330;28;20038;-70
2023/04/01 00:29:36;;;;;;;6.18;1.40;;;;;;;;;;4983961;28;20034;-71
2023/04/01 00:32:01;;;;;;;8.13;1.30;;;;;;;;;;4979328;28;20160;-70
2023/04/01 00:34:26;;;;;;;4.50;1.08;;;;;;;;;;4982961;28;20072;-70
2023/04/01 00:36:52;;;;;;;5.70;1.30;;;;;;;;;;4983617;28;20080;-70
2023/04/01 00:39:18;;;;;;;7.00;1.40;;;;;;;;;;4983000;28;20039;-70
2023/04/01 00:41:44;;;;;;;6.90;1.63;;;;;;;;;;4984278;28;20084;-70
2023/04/01 00:44:24;;;;;;;8.50;1.55;;;;;;;;;;4981094;28;20034;-70
2023/04/01 00:46:50;;;;;;;9.00;1.98;;;;;;;;;;4978949;28;20030;-71
2023/04/01 00:49:19;;;;;;;3.75;1.33;;;;;;;;;;4980318;28;20038;-71
2023/04/01 00:51:47;;;;;;;4.65;1.13;;;;;;;;;;4983373;28;20033;-70
2023/04/01 00:54:15;;;;;;;4.65;1.23;;;;;;;;;;4982402;28;20049;-70
2023/04/01 00:56:48;;;;;;;4.75;1.70;;;;;;;;;;4983546;28;20049;-71
2023/04/01 00:59:19;;;;;;;11.07;1.70;;;;;;;;;;4977600;28;20030;-70
2023/04/01 01:01:45;;;;;;;3.15;1.40;;;;;;;;;;4978927;28;20554;-71
2023/04/01 01:04:24;;;;;;;8.57;1.75;;;;;;;;;;4981932;28;20014;-71
2023/04/01 01:06:56;;;;;;;5.72;1.88;;;;;;;;;;4978625;28;20685;-71
2023/04/01 01:09:38;;;;;;;7.32;2.28;;;;;;;;;;4974433;28;20166;-71
2023/04/01 01:12:27;;;;;;;9.23;2.88;;;;;;;;;;4970688;28;20038;-71
2023/04/01 01:15:01;;;;;;;5.97;2.20;;;;;;;;;;4962361;28;20045;-70
2023/04/01 01:17:56;;;;;;;7.22;1.60;;;;;;;;;;4984126;28;20040;-70
2023/04/01 01:20:52;;;;;;;5.45;1.98;;;;;;;;;;4965340;28;20066;-71
2023/04/01 01:23:54;;;;;;;5.80;2.10;;;;;;;;;;4975999;28;20148;-70
2023/04/01 01:27:13;;;;;;;3.88;1.27;;;;;;;;;;4976634;28;20422;-70
2023/04/01 01:29:53;;;;;;;7.18;2.05;;;;;;;;;;4905075;29;20135;-70
2023/04/01 01:32:27;;;;;;;9.50;2.13;;;;;;;;;;4902675;29;20048;-71
2023/04/01 01:35:11;;;;;;;9.70;2.30;;;;;;;;;;4944962;28;20468;-71
2023/04/01 01:37:37;;;;;;;;;;;;;;;;;;4985503;28;20038;-71
2023/04/01 01:40:07;;;;;;;5.72;2.67;;;;;;;;;;4980318;28;19913;-71
2023/04/01 01:42:36;;;;;;;3.63;1.95;;;;;;;;;;4972258;28;20071;-71
2023/04/01 01:45:04;;;;;;;5.13;1.90;;;;;;;;;;4978039;28;20391;-70
2023/04/01 01:47:31;;;;;;;2.45;1.20;;;;;;;;;;4979540;28;20125;-71
2023/04/01 01:49:56;;;;;;;5.82;1.90;;;;;;;;;;4985107;28;20053;-71
2023/04/01 01:52:23;;;;;;;4.35;1.35;;;;;;;;;;4982688;28;20030;-71
2023/04/01 01:54:53;;;;;;;6.47;1.50;;;;;;;;;;4983690;28;20108;-71
2023/04/01 01:57:24;;;;;;;4.72;1.33;;;;;;;;;;4980711;28;20038;-71
2023/04/01 01:59:54;;;;;;;5.40;1.67;;;;;;;;;;4975537;28;20049;-71
2023/04/01 02:02:21;;;;;;;9.75;1.55;;;;;;;;;;4984915;28;20043;-71
2023/04/01 02:04:47;;;;;;;4.50;1.33;;;;;;;;;;4983748;28;20038;-71
2023/04/01 02:07:35;;;;;;;3.63;1.48;;;;;;;;;;4980057;28;20034;-70
2023/04/01 02:10:01;;;;;;;4.22;1.05;;;;;;;;;;4985019;28;20050;-71
2023/04/01 02:12:28;;;;;;;5.78;1.90;;;;;;;;;;4984107;28;20868;-71
2023/04/01 02:15:08;;;;;;;3.30;1.23;;;;;;;;;;4984567;28;20045;-71
2023/04/01 02:17:37;;;;;;;8.82;2.42;;;;;;;;;;4983666;28;20049;-71
2023/04/01 02:20:11;;;;;;;11.30;2.33;;;;;;;;;;4973323;28;20045;-71
2023/04/01 02:22:42;;;;;;;9.90;2.95;;;;;;;;;;4983464;28;20110;-71
2023/04/01 02:25:12;;;;;;;11.20;3.13;;;;;;;;;;4972146;28;20486;-71
2023/04/01 02:27:38;;;;;;;11.85;2.75;;;;;;;;;;4974158;28;20767;-71
2023/04/01 02:30:04;;;;;;;10.88;3.10;;;;;;;;;;4974503;28;20081;-71
2023/04/01 02:32:31;;;;;;;14.60;3.95;;;;;;;;;;4980643;28;20062;-71
2023/04/01 02:34:59;;;;;;;12.13;3.92;;;;;;;;;;4983754;28;20038;-71
2023/04/01 02:37:24;;;;;;;12.30;3.03;;;;;;;;;;4980818;28;20029;-71
2023/04/01 02:39:49;;;;;;;9.30;3.67;;;;;;;;;;4974509;28;20022;-71
2023/04/01 02:42:15;;;;;;;10.48;3.10;;;;;;;;;;4972234;28;20043;-70
2023/04/01 02:44:40;;;;;;;10.75;3.42;;;;;;;;;;4973289;28;20517;-71
2023/04/01 02:47:06;;;;;;;12.07;4.25;;;;;;;;;;4975746;28;20434;-71
2023/04/01 02:49:31;;;;;;;9.70;3.22;;;;;;;;;;4986894;28;20049;-71
2023/04/01 02:51:56;;;;;;;9.73;3.83;;;;;;;;;;4988887;28;20500;-71
2023/04/01 02:54:22;;;;;;;14.45;3.42;;;;;;;;;;4988662;28;20038;-71
2023/04/01 02:56:47;;;;;;;16.45;4.65;;;;;;;;;;5000458;28;20049;-71
2023/04/01 02:59:13;;;;;;;12.85;4.68;;;;;;;;;;4991920;28;20065;-71
2023/04/01 03:01:38;;;;;;;11.00;4.28;;;;;;;;;;4997144;28;20030;-71
2023/04/01 03:04:04;;;;;;;10.27;4.00;;;;;;;;;;5000435;28;20030;-71
2023/04/01 03:06:30;;;;;;;14.60;5.10;;;;;;;;;;4997236;28;20045;-71
2023/04/01 03:08:55;;;;;;;10.93;4.43;;;;;;;;;;5006747;28;20038;-71
2023/04/01 03:11:21;;;;;;;9.75;4.03;;;;;;;;;;5001016;28;20528;-71
2023/04/01 03:13:46;;;;;;;14.65;5.78;;;;;;;;;;5000063;28;20708;-71
2023/04/01 03:16:12;;;;;;;11.93;5.10;;;;;;;;;;5008589;28;20026;-71
2023/04/01 03:18:37;;;;;;;17.60;5.72;;;;;;;;;;5007513;28;20029;-71
2023/04/01 03:21:16;;;;;;;15.85;5.68;;;;;;;;;;5007712;28;20046;-71
2023/04/01 03:23:41;;;;;;;15.52;6.15;;;;;;;;;;5007536;28;20037;-71
2023/04/01 03:26:07;;;;;;;18.60;6.63;;;;;;;;;;5006249;28;20034;-71
2023/04/01 03:28:32;;;;;;;18.70;7.38;;;;;;;;;;5004864;28;20077;-71
2023/04/01 03:30:57;;;;;;;14.93;6.07;;;;;;;;;;5011601;28;20029;-71
2023/04/01 03:33:22;;;;;;;13.32;5.68;;;;;;;;;;4989271;28;20042;-71
2023/04/01 03:35:48;;;;;;;17.60;4.93;;;;;;;;;;5001340;28;20038;-71
2023/04/01 03:38:14;;;;;;;9.77;4.35;;;;;;;;;;5010036;28;20479;-71
2023/04/01 03:40:42;;;;;;;18.88;6.10;;;;;;;;;;5009264;28;20037;-71
2023/04/01 03:43:09;;;;;;;12.60;6.18;;;;;;;;;;5007585;28;20058;-71
2023/04/01 03:45:35;;;;;;;12.70;5.15;;;;;;;;;;5006757;28;20038;-70
2023/04/01 03:48:00;;;;;;;15.55;6.28;;;;;;;;;;5007082;28;20072;-70
2023/04/01 03:50:26;;;;;;;12.40;5.03;;;;;;;;;;5005030;28;20084;-71
2023/04/01 03:52:51;;;;;;;12.40;6.40;;;;;;;;;;5006974;28;20151;-71
2023/04/01 03:55:17;;;;;;;11.77;5.35;;;;;;;;;;5006391;28;20053;-71
2023/04/01 03:57:43;;;;;;;12.98;5.25;;;;;;;;;;5007198;28;20485;-71
2023/04/01 04:00:09;;;;;;;15.07;6.10;;;;;;;;;;5007245;28;20041;-70
2023/04/01 04:02:36;;;;;;;11.82;4.78;;;;;;;;;;5008743;28;20045;-71
2023/04/01 04:05:01;;;;;;;12.02;5.22;;;;;;;;;;5008588;28;20153;-71
2023/04/01 04:07:27;;;;;;;13.75;5.82;;;;;;;;;;5012989;28;20030;-71
2023/04/01 04:09:52;;;;;;;12.60;5.30;;;;;;;;;;5007360;28;20049;-71
2023/04/01 04:12:17;;;;;;;15.40;6.40;;;;;;;;;;5006017;28;20034;-71
2023/04/01 04:14:42;;;;;;;18.48;6.03;;;;;;;;;;5019491;28;20420;-71
2023/04/01 04:17:15;;;;;;;14.95;5.32;;;;;;;;;;5008952;28;20029;-71
2023/04/01 04:19:41;;;;;;;15.93;5.72;;;;;;;;;;5006948;28;20222;-71
2023/04/01 04:22:06;;;;;;;12.98;5.93;;;;;;;;;;5006392;28;20493;-71
2023/04/01 04:24:33;;;;;;;19.42;7.40;;;;;;;;;;5004275;28;20513;-71
2023/04/01 04:26:58;;;;;;;17.27;7.20;;;;;;;;;;5006635;28;20147;-71
2023/04/01 04:29:24;;;;;;;14.05;5.63;;;;;;;;;;5005883;28;20497;-71
2023/04/01 04:31:49;;;;;;;14.20;5.65;;;;;;;;;;4999612;28;20104;-71
2023/04/01 04:34:14;;;;;;;14.98;6.28;;;;;;;;;;4999032;28;20069;-71
2023/04/01 04:36:40;;;;;;;14.18;5.38;;;;;;;;;;5005721;28;20029;-71
2023/04/01 04:39:05;;;;;;;10.52;4.80;;;;;;;;;;5004995;28;20038;-71
2023/04/01 04:41:30;;;;;;;15.52;6.43;;;;;;;;;;5005777;28;20061;-71
2023/04/01 04:43:57;;;;;;;15.57;7.10;;;;;;;;;;5003867;28;20301;-71
2023/04/01 04:46:22;;;;;;;16.48;7.13;;;;;;;;;;4997631;28;20061;-71
2023/04/01 04:48:48;;;;;;;19.00;7.20;;;;;;;;;;4998928;28;20500;-71
2023/04/01 04:51:15;;;;;;;17.38;8.13;;;;;;;;;;5014916;28;20037;-71
2023/04/01 04:53:41;;;;;;;21.80;7.15;;;;;;;;;;5014440;28;20057;-71
2023/04/01 04:56:06;;;;;;;18.75;7.00;;;;;;;;;;5004385;28;20068;-70
2023/04/01 04:58:31;;;;;;;18.13;7.05;;;;;;;;;;5005402;28;20108;-71
2023/04/01 05:00:57;;;;;;;21.45;7.53;;;;;;;;;;5001961;28;20030;-71
2023/04/01 05:03:22;;;;;;;23.65;7.93;;;;;;;;;;5005248;28;20041;-71
2023/04/01 05:05:49;;;;;;;16.85;6.25;;;;;;;;;;4999349;28;20042;-71
2023/04/01 05:08:15;;;;;;;31.25;7.95;;;;;;;;;;5003052;28;20125;-71
2023/04/01 05:10:40;;;;;;;24.75;7.50;;;;;;;;;;5004615;28;20316;-71
2023/04/01 05:13:06;;;;;;;24.48;8.55;;;;;;;;;;5011777;28;20563;-71
2023/04/01 05:15:32;;;;;;;23.88;8.60;;;;;;;;;;5004820;28;20061;-71
2023/04/01 05:17:57;;;;;;;20.20;7.95;;;;;;;;;;5007915;28;20080;-71
2023/04/01 05:20:22;;;;;;;21.60;8.30;;;;;;;;;;5005186;28;20045;-70
2023/04/01 05:22:48;;;;;;;28.83;10.50;;;;;;;;;;5004056;28;20040;-71
2023/04/01 05:25:13;;;;;;;21.65;9.30;;;;;;;;;;5006012;28;20041;-70
2023/04/01 05:27:38;;;;;;;22.95;8.48;;;;;;;;;;5006963;28;20827;-70
2023/04/01 05:30:05;;;;;;;20.60;7.93;;;;;;;;;;5004456;28;20457;-70
2023/04/01 05:32:31;;;;;;;14.75;6.85;;;;;;;;;;4997972;28;20030;-70
2023/04/01 05:34:56;;;;;;;15.77;6.93;;;;;;;;;;5007648;28;20065;-70
2023/04/01 05:37:22;;;;;;;18.27;8.50;;;;;;;;;;5004971;28;20060;-70
2023/04/01 05:39:48;;;;;;;20.10;8.00;;;;;;;;;;5003824;28;20072;-70
2023/04/01 05:42:13;;;;;;;20.15;7.43;;;;;;;;;;5005156;28;20084;-70
2023/04/01 05:44:39;;;;;;;17.08;7.65;;;;;;;;;;5004745;28;20133;-70
2023/04/01 05:47:04;;;;;;;16.08;5.80;;;;;;;;;;4991846;28;20040;-70
2023/04/01 05:49:30;;;;;;;19.45;8.02;;;;;;;;;;5012148;28;20028;-70
2023/04/01 05:51:56;;;;;;;18.42;7.30;;;;;;;;;;5009003;28;20037;-70
2023/04/01 05:54:21;;;;;;;21.58;8.45;;;;;;;;;;5007182;28;20501;-70
2023/04/01 05:56:47;;;;;;;22.30;7.25;;;;;;;;;;5016331;28;20088;-70
2023/04/01 05:59:13;;;;;;;20.98;7.63;;;;;;;;;;4999157;28;20149;-70
2023/04/01 06:01:38;;;;;;;14.18;6.80;;;;;;;;;;5006827;28;20049;-70
2023/04/01 06:04:04;;;;;;;17.45;6.90;;;;;;;;;;5005674;28;20018;-70
2023/04/01 06:06:32;;;;;;;11.25;5.60;;;;;;;;;;5004966;28;20034;-70
2023/04/01 06:09:07;;;;;;;9.93;5.20;;;;;;;;;;5005361;28;20033;-70
2023/04/01 06:11:58;;;;;;;11.65;5.75;;;;;;;;;;5002121;28;20042;-70
2023/04/01 06:14:40;;;;;;;10.95;5.22;;;;;;;;;;5003832;28;20061;-70
2023/04/01 06:17:26;;;;;;;10.07;5.68;;;;;;;;;;4992478;28;20088;-70
2023/04/01 06:20:20;;;;;;;12.38;6.10;;;;;;;;;;5001863;28;20157;-70
2023/04/01 06:23:06;;;;;;;9.82;4.88;;;;;;;;;;4999805;28;20049;-70
2023/04/01 06:26:01;;;;;;;7.13;4.22;;;;;;;;;;4999743;28;20032;-70
2023/04/01 06:28:36;;;;;;;7.10;4.20;;;;;;;;;;4991407;28;20453;-70
2023/04/01 06:31:34;;;;;;;8.73;4.05;;;;;;;;;;5007032;28;20041;-70
2023/04/01 06:34:27;;;;;;;9.40;4.88;;;;;;;;;;4971861;28;20053;-70
2023/04/01 06:37:25;;;;;;;9.23;5.03;;;;;;;;;;5003118;28;20041;-70
2023/04/01 06:40:09;;;;;;;11.68;5.50;;;;;;;;;;5011124;28;20103;-70
2023/04/01 06:42:50;;;;;;;14.75;6.78;;;;;;;;;;5005681;28;20053;-70
2023/04/01 06:45:31;;;;;;;13.05;5.70;;;;;;;;;;5002071;28;20050;-70
2023/04/01 06:48:18;;;;;;;14.68;6.82;;;;;;;;;;5001390;28;20093;-70
2023/04/01 06:51:21;;;;;;;14.10;6.65;;;;;;;;;;4994709;28;20199;-70
2023/04/01 06:53:56;;;;;;;20.05;6.38;;;;;;;;;;4993494;28;20516;-70
2023/04/01 06:56:26;;;;;;;19.83;8.63;;;;;;;;;;5011146;28;20041;-70
2023/04/01 06:59:15;;;;;;;19.05;8.68;;;;;;;;;;5008930;28;20041;-70
2023/04/01 07:01:45;;;;;;;19.15;8.05;;;;;;;;;;5002083;28;20057;-70
2023/04/01 07:04:30;;;;;;;15.40;7.05;;;;;;;;;;5004096;28;20029;-70
2023/04/01 07:06:59;;;;;;;17.40;7.55;;;;;;;;;;4987780;28;20458;-71
2023/04/01 07:09:38;;;;;;;12.68;5.75;;;;;;;;;;5001448;28;20057;-70
2023/04/01 07:12:14;;;;;;;12.65;6.10;;;;;;;;;;5002878;28;20062;-71
2023/04/01 07:14:42;;;;;;;13.63;6.47;;;;;;;;;;5001493;28;20038;-70
2023/04/01 07:17:21;;;;;;;15.80;6.53;;;;;;;;;;5002168;28;20038;-71
2023/04/01 07:20:10;;;;;;;13.35;5.45;;;;;;;;;;5001893;28;20176;-70
2023/04/01 07:22:41;;;;;;;10.05;5.25;;;;;;;;;;5000660;28;20046;-71
2023/04/01 07:25:16;;;;;;;12.57;6.20;;;;;;;;;;5000950;28;20030;-70
2023/04/01 07:27:43;;;;;;;22.95;6.82;;;;;;;;;;5010294;28;20030;-73
2023/04/01 07:30:17;;;;;;;12.38;6.35;;;;;;;;;;5002195;28;20045;-70
2023/04/01 07:33:04;;;;;;;12.55;6.13;;;;;;;;;;5001636;28;20037;-70
2023/04/01 07:35:29;;;;;;;11.93;5.88;;;;;;;;;;5008821;28;20048;-70
2023/04/01 07:38:18;;;;;;;10.88;5.05;;;;;;;;;;5001978;28;20049;-70
2023/04/01 07:40:54;;;;;;;7.88;3.92;;;;;;;;;;4998880;28;20042;-70
2023/04/01 07:43:29;;;;;;;11.63;4.82;;;;;;;;;;5002955;28;20044;-70
2023/04/01 07:46:00;;;;;;;9.85;5.15;;;;;;;;;;5004279;28;20109;-70
2023/04/01 07:49:03;;;;;;;11.00;5.43;;;;;;;;;;5001037;28;20425;-70
2023/04/01 07:51:37;;;;;;;10.07;5.50;;;;;;;;;;5002351;28;20041;-70
2023/04/01 07:54:24;;;;;;;8.35;4.22;;;;;;;;;;4994545;28;20469;-70
2023/04/01 07:57:01;;;;;;;12.40;5.75;;;;;;;;;;5007821;28;20064;-70
2023/04/01 08:00:08;;;;;;;13.07;6.03;;;;;;;;;;5002475;28;20074;-70
2023/04/01 08:02:43;;;;;;;9.80;5.25;;;;;;;;;;5000662;28;20042;-70
2023/04/01 08:05:30;;;;;;;12.68;6.22;;;;;;;;;;5002076;28;20041;-70
2023/04/01 08:08:01;;;;;;;11.00;5.82;;;;;;;;;;5000416;28;20080;-70
2023/04/01 08:10:46;;;;;;;8.32;4.32;;;;;;;;;;5003614;28;20104;-70
2023/04/01 08:13:24;;;;;;;7.53;4.47;;;;;;;;;;5005502;28;20512;-69
2023/04/01 08:15:56;;;;;;;8.63;4.55;;;;;;;;;;5007019;28;20037;-70
2023/04/01 08:18:45;;;;;;;5.87;3.50;;;;;;;;;;5004752;28;20065;-70
2023/04/01 08:21:17;;;;;;;7.65;3.75;;;;;;;;;;5005930;28;20273;-70
2023/04/01 08:23:48;;;;;;;5.32;3.72;;;;;;;;;;5006487;28;20034;-70
2023/04/01 08:26:33;;;;;;;7.40;3.10;;;;;;;;;;5005931;28;20038;-70
2023/04/01 08:29:10;;;;;;;8.05;3.50;;;;;;;;;;5006085;28;20053;-70
2023/04/01 08:31:47;;;;;;;3.38;1.55;;;;;;;;;;5002292;28;20409;-70
2023/04/01 08:34:22;;;;;;;3.60;1.92;;;;;;;;;;5001667;28;20127;-70
2023/04/01 08:36:54;;;;;;;4.90;2.45;;;;;;;;;;4998856;28;20123;-72
2023/04/01 08:39:32;;;;;;;6.78;2.20;;;;;;;;;;4990208;28;21245;-74
2023/04/01 08:42:28;;;;;;;3.45;2.30;;;;;;;;;;4997711;28;20100;-71
2023/04/01 08:45:12;;;;;;;5.22;3.20;;;;;;;;;;5001916;28;20045;-71
2023/04/01 08:47:55;;;;;;;4.43;2.20;;;;;;;;;;5003783;28;20045;-70
2023/04/01 08:50:55;;;;;;;3.08;2.00;;;;;;;;;;5008448;28;20049;-71
2023/04/01 08:53:58;;;;;;;2.92;2.22;;;;;;;;;;5003802;28;20049;-71
2023/04/01 08:56:29;;;;;;;2.75;1.92;;;;;;;;;;5005980;28;20042;-71
2023/04/01 08:59:26;;;;;;;3.95;2.30;;;;;;;;;;5004405;28;20504;-70
2023/04/01 09:02:20;;;;;;;3.30;2.13;;;;;;;;;;5002522;28;20520;-70
2023/04/01 09:04:51;;;;;;;3.67;2.50;;;;;;;;;;5005465;28;20033;-71
2023/04/01 09:07:55;;;;;;;5.18;2.92;;;;;;;;;;4998289;28;20033;-70
2023/04/01 09:10:34;;;;;;;4.00;2.47;;;;;;;;;;4940139;28;20109;-71
2023/04/01 09:13:09;;;;;;;4.15;2.80;;;;;;;;;;4991087;28;20041;-71
2023/04/01 09:15:59;;;;;;;6.18;2.80;;;;;;;;;;5004002;28;20113;-70
2023/04/01 09:19:09;;;;;;;4.35;2.45;;;;;;;;;;5003303;28;20038;-70
2023/04/01 09:21:46;;;;;;;4.10;1.95;;;;;;;;;;4984490;28;20037;-71
2023/04/01 09:24:25;;;;;;;2.53;1.90;;;;;;;;;;5005150;28;20069;-71
2023/04/01 09:26:57;;;;;;;2.80;1.38;;;;;;;;;;5004318;28;20037;-71
2023/04/01 09:29:37;;;;;;;2.40;1.60;;;;;;;;;;5002654;28;20563;-71
2023/04/01 09:32:33;;;;;;;3.47;1.70;;;;;;;;;;5006624;28;20449;-71
2023/04/01 09:35:20;;;;;;;2.78;1.65;;;;;;;;;;5005472;28;20034;-71
2023/04/01 09:37:46;;;;;;;2.85;1.48;;;;;;;;;;5006410;28;20030;-71
2023/04/01 09:40:33;;;;;;;3.13;2.08;;;;;;;;;;5008233;28;20026;-71
2023/04/01 09:43:26;;;;;;;3.22;1.85;;;;;;;;;;5005449;28;20046;-71
2023/04/01 09:46:05;;;;;;;2.67;1.67;;;;;;;;;;4997126;28;20468;-71
2023/04/01 09:48:41;;;;;;;3.90;1.92;;;;;;;;;;5000859;28;20045;-71
2023/04/01 09:51:24;;;;;;;3.08;1.55;;;;;;;;;;5005218;28;20037;-71
2023/04/01 09:54:28;;;;;;;4.07;2.13;;;;;;;;;;5004778;28;21001;-71
2023/04/01 09:57:15;;;;;;;2.25;1.48;;;;;;;;;;5005089;28;20034;-71
2023/04/01 10:00:06;;;;;;;2.10;1.48;;;;;;;;;;5003498;28;20559;-71
2023/04/01 10:02:52;;;;;;;3.53;2.05;;;;;;;;;;5004950;28;20036;-71
2023/04/01 10:05:39;;;;;;;2.20;1.40;;;;;;;;;;5004447;28;20727;-71
2023/04/01 10:08:19;;;;;;;2.83;1.90;;;;;;;;;;5003277;28;20042;-71
2023/04/01 10:11:03;;;;;;;4.50;2.53;;;;;;;;;;5003622;28;20049;-71
2023/04/01 10:13:47;;;;;;;4.95;2.92;;;;;;;;;;5004592;28;20037;-71
2023/04/01 10:16:51;;;;;;;4.80;2.50;;;;;;;;;;5004172;28;20026;-71
2023/04/01 10:19:54;;;;;;;4.90;2.78;;;;;;;;;;5000947;28;20692;-71
2023/04/01 10:22:48;;;;;;;5.15;2.85;;;;;;;;;;5004627;28;20028;-71
2023/04/01 10:25:37;;;;;;;5.18;2.30;;;;;;;;;;4991767;28;20044;-71
2023/04/01 10:28:36;;;;;;;5.28;2.50;;;;;;;;;;5003390;28;20026;-71
2023/04/01 10:31:32;;;;;;;2.47;1.80;;;;;;;;;;4999479;28;20080;-71
2023/04/01 10:34:22;;;;;;;1.75;1.25;;;;;;;;;;4995316;28;20061;-71
2023/04/01 10:36:52;;;;;;;4.40;1.95;;;;;;;;;;4993401;28;20523;-71
2023/04/01 10:39:36;;;;;;;4.78;1.90;;;;;;;;;;5003749;28;20061;-71
2023/04/01 10:42:19;;;;;;;3.30;1.80;;;;;;;;;;5004056;28;20042;-71
2023/04/01 10:44:47;;;;;;;;;;;;;;;;;;5000175;28;20437;-71
2023/04/01 10:47:40;;;;;;;3.92;1.80;;;;;;;;;;4992710;28;20664;-71
2023/04/01 10:50:24;;;;;;;3.67;2.10;;;;;;;;;;5002001;28;20113;-71
2023/04/01 10:53:10;;;;;;;4.20;1.90;;;;;;;;;;5003942;28;20036;-71
2023/04/01 10:55:50;;;;;;;3.53;2.15;;;;;;;;;;4992662;28;20044;-71
2023/04/01 10:58:19;;;;;;;5.38;2.63;;;;;;;;;;4998458;28;20117;-71
2023/04/01 11:01:17;;;;;;;4.97;2.50;;;;;;;;;;5010078;28;20117;-71
2023/04/01 11:03:54;;;;;;;4.10;2.55;;;;;;;;;;5009519;28;20042;-71
2023/04/01 11:06:31;;;;;;;4.13;2.17;;;;;;;;;;5007183;28;20049;-71
2023/04/01 11:09:25;;;;;;;4.53;2.63;;;;;;;;;;4994008;28;20038;-71
2023/04/01 11:12:21;;;;;;;3.40;2.00;;;;;;;;;;5007184;28;20048;-71
2023/04/01 11:14:52;;;;;;;4.47;1.98;;;;;;;;;;5005222;28;20045;-71
2023/04/01 11:17:36;;;;;;;3.42;2.08;;;;;;;;;;5006997;28;20038;-71
2023/04/01 11:20:27;;;;;;;4.32;2.35;;;;;;;;;;5005653;28;20077;-71
2023/04/01 11:23:15;;;;;;;5.60;1.88;;;;;;;;;;5006228;28;20121;-71
2023/04/01 11:25:59;;;;;;;2.10;1.20;;;;;;;;;;5007573;28;20034;-71
2023/04/01 11:28:41;;;;;;;2.83;1.80;;;;;;;;;;4995056;28;20037;-71
2023/04/01 11:31:31;;;;;;;5.40;2.20;;;;;;;;;;5007262;28;20033;-71
2023/04/01 11:34:34;;;;;;;5.07;2.20;;;;;;;;;;5006183;28;20543;-71
2023/04/01 11:37:28;;;;;;;3.92;2.13;;;;;;;;;;4996951;28;20042;-71
2023/04/01 11:40:14;;;;;;;3.88;1.95;;;;;;;;;;5007702;28;20085;-71
2023/04/01 11:42:47;;;;;;;5.35;2.40;;;;;;;;;;5001631;28;20471;-71
2023/04/01 11:45:20;;;;;;;3.90;2.38;;;;;;;;;;5004904;28;20041;-71
2023/04/01 11:47:57;;;;;;;3.87;1.83;;;;;;;;;;4999137;28;20092;-71
2023/04/01 11:50:31;;;;;;;1.48;1.30;;;;;;;;;;5007525;28;20524;-71
2023/04/01 11:53:34;;;;;;;4.50;1.58;;;;;;;;;;5007718;28;20532;-71
2023/04/01 11:56:13;;;;;;;2.42;1.38;;;;;;;;;;4998524;28;20719;-71
2023/04/01 11:58:38;;;;;;;2.33;1.27;;;;;;;;;;4993701;28;20116;-71
2023/04/01 12:01:33;;;;;;;4.75;1.83;;;;;;;;;;5007062;28;20053;-71
2023/04/01 12:04:36;;;;;;;6.57;2.03;;;;;;;;;;5016702;28;20041;-71
2023/04/01 12:07:39;;;;;;;4.90;2.05;;;;;;;;;;4954256;28;20078;-71
2023/04/01 12:10:24;;;;;;;3.75;1.95;;;;;;;;;;4964651;28;20055;-71
2023/04/01 12:13:23;;;;;;;2.42;1.70;;;;;;;;;;4989742;28;20042;-71
2023/04/01 12:16:03;;;;;;;4.63;2.45;;;;;;;;;;4992496;28;20057;-71
2023/04/01 12:18:43;;;;;;;1.95;1.23;;;;;;;;;;5006714;28;20780;-71
2023/04/01 12:21:21;;;;;;;3.33;1.70;;;;;;;;;;5006644;28;20058;-71
2023/04/01 12:24:08;;;;;;;2.90;1.65;;;;;;;;;;5008969;28;20116;-71
2023/04/01 12:26:57;;;;;;;3.30;1.65;;;;;;;;;;5009582;28;20045;-71
2023/04/01 12:29:54;;;;;;;2.05;1.15;;;;;;;;;;5006670;28;20120;-71
2023/04/01 12:32:38;;;;;;;3.45;1.63;;;;;;;;;;4981076;28;20042;-71
2023/04/01 12:35:13;;;;;;;5.25;2.50;;;;;;;;;;4995818;28;20034;-71
2023/04/01 12:37:53;;;;;;;3.25;2.20;;;;;;;;;;5005753;28;20057;-71
2023/04/01 12:40:40;;;;;;;4.22;2.15;;;;;;;;;;5007477;28;20714;-71
2023/04/01 12:43:35;;;;;;;2.90;1.88;;;;;;;;;;5021178;28;20076;-71
2023/04/01 12:46:17;;;;;;;2.72;1.75;;;;;;;;;;4968657;28;20046;-71
2023/04/01 12:49:25;;;;;;;4.30;2.30;;;;;;;;;;5005643;28;20030;-71
2023/04/01 12:52:00;;;;;;;5.03;2.67;;;;;;;;;;5001798;28;20307;-71
2023/04/01 12:54:49;;;;;;;5.35;3.00;;;;;;;;;;5005831;28;20088;-71
2023/04/01 12:57:44;;;;;;;4.82;2.38;;;;;;;;;;5002139;28;20040;-71
2023/04/01 13:01:07;;;;;;;4.45;1.67;;;;;;;;;;5001399;28;20070;-71
2023/04/01 13:03:59;;;;;;;2.78;1.17;;;;;;;;;;4950802;28;20522;-71
2023/04/01 13:07:01;;;;;;;2.60;1.67;;;;;;;;;;4963194;28;20046;-71
2023/04/01 13:09:42;;;;;;;3.00;1.70;;;;;;;;;;4995106;28;20058;-71
2023/04/01 13:12:14;;;;;;;5.40;2.75;;;;;;;;;;4988061;28;20053;-71
2023/04/01 13:14:45;;;;;;;3.67;2.30;;;;;;;;;;4998156;28;20041;-71
2023/04/01 13:17:26;;;;;;;6.15;2.55;;;;;;;;;;5005449;28;20034;-71
2023/04/01 13:20:16;;;;;;;5.72;2.80;;;;;;;;;;5005114;28;20030;-71
2023/04/01 13:23:03;;;;;;;3.25;1.83;;;;;;;;;;5004867;28;20030;-71
2023/04/01 13:25:37;;;;;;;4.70;2.33;;;;;;;;;;4993150;28;20030;-71
2023/04/01 13:28:15;;;;;;;4.78;2.47;;;;;;;;;;5003794;28;20033;-71
2023/04/01 13:31:05;;;;;;;3.95;2.35;;;;;;;;;;5004731;28;20760;-71
2023/04/01 13:33:55;;;;;;;3.85;2.33;;;;;;;;;;4992460;28;20084;-71
2023/04/01 13:36:45;;;;;;;2.85;1.73;;;;;;;;;;5004957;28;20594;-71
2023/04/01 13:39:58;;;;;;;2.20;1.50;;;;;;;;;;5003497;28;20061;-71
2023/04/01 13:42:28;;;;;;;2.38;1.50;;;;;;;;;;5002955;28;20050;-71
2023/04/01 13:45:09;;;;;;;1.63;1.00;;;;;;;;;;5008449;28;20045;-71
2023/04/01 13:47:52;;;;;;;2.90;1.45;;;;;;;;;;4995402;28;20421;-71
2023/04/01 13:50:25;;;;;;;1.35;1.08;;;;;;;;;;5005155;28;20136;-71
2023/04/01 13:53:06;;;;;;;;;;;;;;;;;;4998858;28;20046;-71
2023/04/01 13:55:55;;;;;;;2.60;1.65;;;;;;;;;;5001575;28;20407;-71
2023/04/01 13:58:37;;;;;;;2.60;1.58;;;;;;;;;;5003655;28;20033;-71
2023/04/01 14:01:14;;;;;;;4.85;1.85;;;;;;;;;;5004029;28;20021;-71
2023/04/01 14:04:04;;;;;;;3.97;2.00;;;;;;;;;;5002411;28;20097;-71
2023/04/01 14:06:55;;;;;;;4.53;1.98;;;;;;;;;;4997536;28;20042;-71
2023/04/01 14:09:54;;;;;;;4.47;2.38;;;;;;;;;;4993616;28;20046;-71
2023/04/01 14:12:28;;;;;;;2.35;1.77;;;;;;;;;;4991978;28;20042;-71
2023/04/01 14:15:10;;;;;;;3.08;1.90;;;;;;;;;;5002648;28;20044;-71
2023/04/01 14:17:44;;;;;;;4.07;2.20;;;;;;;;;;4997161;28;20119;-70
2023/04/01 14:20:51;;;;;;;2.35;1.55;;;;;;;;;;5001413;28;20038;-70
2023/04/01 14:23:58;;;;;;;2.60;1.23;;;;;;;;;;5003484;28;20057;-70
2023/04/01 14:26:49;;;;;;;2.75;1.88;;;;;;;;;;4983604;28;20132;-70
2023/04/01 14:29:30;;;;;;;4.05;1.70;;;;;;;;;;5003823;28;20092;-70
2023/04/01 14:31:59;;;;;;;2.28;1.40;;;;;;;;;;5004230;28;20118;-70
2023/04/01 14:34:36;;;;;;;2.30;1.50;;;;;;;;;;5001142;28;20021;-70
2023/04/01 14:37:30;;;;;;;1.65;1.20;;;;;;;;;;5004382;28;20022;-70
2023/04/01 14:40:40;;;;;;;4.32;1.38;;;;;;;;;;5005172;28;20720;-70
2023/04/01 14:43:05;;;;;;;1.52;1.20;;;;;;;;;;4924220;29;20088;-70
2023/04/01 14:45:40;;;;;;;2.80;1.38;;;;;;;;;;4978194;28;20042;-70
2023/04/01 14:48:17;;;;;;;1.73;1.13;;;;;;;;;;4983860;28;20038;-70
2023/04/01 14:50:46;;;;;;;2.08;1.42;;;;;;;;;;4984739;28;20121;-70
2023/04/01 14:53:24;;;;;;;5.00;1.58;;;;;;;;;;4984678;28;20517;-70
2023/04/01 14:55:58;;;;;;;4.80;1.50;;;;;;;;;;5012051;28;20080;-70
2023/04/01 14:58:45;;;;;;;3.65;1.73;;;;;;;;;;5005888;28;20564;-70
2023/04/01 15:01:42;;;;;;;2.92;1.08;;;;;;;;;;5004749;28;20026;-70
2023/04/01 15:04:55;;;;;;;3.53;2.13;;;;;;;;;;5003740;28;20045;-70
2023/04/01 15:07:40;;;;;;;1.63;1.08;;;;;;;;;;4957975;28;20544;-70
2023/04/01 15:10:22;;;;;;;2.10;1.60;;;;;;;;;;5006729;28;20599;-70
2023/04/01 15:13:09;;;;;;;1.58;0.70;;;;;;;;;;5005843;28;20052;-70
2023/04/01 15:16:02;;;;;;;0.80;0.70;;;;;;;;;;5010510;28;20036;-70
2023/04/01 15:18:31;;;;;;;1.55;1.00;;;;;;;;;;4984459;28;20057;-70
2023/04/01 15:21:06;;;;;;;1.02;0.70;;;;;;;;;;4984555;28;20061;-70
2023/04/01 15:23:38;;;;;;;1.73;1.17;;;;;;;;;;5004039;28;20145;-70
2023/04/01 15:26:16;;;;;;;2.58;1.23;;;;;;;;;;5013500;28;20499;-70
2023/04/01 15:29:03;;;;;;;2.28;1.48;;;;;;;;;;5023554;28;20126;-70
2023/04/01 15:31:45;;;;;;;2.70;1.55;;;;;;;;;;5023770;28;20064;-70
2023/04/01 15:34:38;;;;;;;2.45;1.70;;;;;;;;;;5024631;28;20030;-70
2023/04/01 15:37:28;;;;;;;8.45;1.73;;;;;;;;;;4984385;28;20038;-70
2023/04/01 15:39:59;;;;;;;1.95;1.40;;;;;;;;;;4995949;28;20034;-70